Date,TemperatureHighF,TemperatureAvgF,TemperatureLowF,DewpointHighF,DewpointAvgF,DewpointLowF,HumidityHigh,HumidityAvg,HumidityLow,PressureMaxIn,PressureMinIn,WindSpeedMaxMPH,WindSpeedAvgMPH,GustSpeedMaxMPH,PrecipitationSumIn
2013-7-1,89,76,66,88,75,65,98,98,98,29.81,29.72,6,2,0,0.00
2013-7-2,87,72,62,86,72,61,98,98,98,29.92,29.81,6,2,0,0.00
2013-7-3,80,69,60,80,69,59,98,98,98,29.97,29.85,6,2,0,0.00
2013-7-4,77,66,57,77,66,57,98,98,98,29.92,29.84,6,2,0,0.00
2013-7-5,74,66,57,74,66,56,98,98,98,29.85,29.76,6,2,0,0.00
2013-7-6,76,66,57,76,66,56,98,98,98,29.83,29.65,9,3,0,0.00
2013-7-7,76,67,60,75,67,60,98,98,98,29.76,29.69,7,2,0,0.00
2013-7-8,78,68,59,77,67,59,98,98,98,29.91,29.76,6,1,0,0.00
2013-7-9,84,72,59,83,71,59,98,98,98,29.94,29.80,6,1,0,0.00
2013-7-10,79,68,59,78,67,59,98,98,98,29.87,29.77,6,2,0,0.00
2013-7-11,75,66,57,74,65,57,98,98,98,29.89,29.80,7,2,0,0.00
2013-7-12,76,65,54,75,64,54,98,98,98,29.92,29.84,7,2,0,0.00
2013-7-13,75,65,54,75,65,54,98,98,98,30.04,29.92,6,2,0,0.00
2013-7-14,79,67,56,78,67,56,98,98,98,29.96,29.84,8,2,0,0.00
2013-7-15,80,69,59,80,68,59,98,98,98,29.92,29.75,9,3,0,0.00
2013-7-16,86,72,59,85,71,59,98,98,98,29.77,29.64,9,2,0,0.00
2013-7-17,79,72,65,78,71,64,98,98,98,30.01,29.68,7,2,0,0.00
2013-7-18,80,70,61,79,69,61,98,98,98,30.06,29.94,6,2,0,0.00
2013-7-19,82,70,60,81,70,60,98,98,98,29.99,29.85,6,2,0,0.00
2013-7-20,81,68,58,80,67,58,98,98,98,29.90,29.78,6,2,0,0.00
2013-7-21,80,68,57,79,67,56,98,98,98,29.80,29.72,5,2,0,0.00
2013-7-22,80,69,58,79,68,58,98,98,98,29.87,29.76,6,1,0,0.00
2013-7-23,85,72,59,84,71,59,98,98,98,29.91,29.79,6,1,0,0.00
2013-7-24,84,71,60,84,71,59,98,98,98,29.89,29.81,6,1,0,0.00
2013-7-25,80,70,58,80,69,58,98,98,98,29.93,29.84,6,1,0,0.00
2013-7-26,78,68,59,77,68,59,98,98,98,29.98,29.90,6,2,0,0.00
2013-7-27,78,67,59,77,66,58,98,98,98,29.97,29.82,8,3,0,0.00
2013-7-28,78,68,57,78,67,57,98,98,98,29.83,29.75,7,2,0,0.00
2013-7-29,81,69,60,80,69,59,98,98,98,29.83,29.75,5,2,0,0.00
2013-7-30,82,70,61,82,70,60,98,98,98,29.96,29.82,4,1,0,0.00
2013-7-31,80,70,60,79,69,60,98,98,98,29.94,29.81,6,1,0,0.00